Myerstown, Pennsylvania
Current Conditions -  °F | °C
As of 9:26 AM on Monday 26 Jan 2015 (Local Time) from KMUI Reporting Station
Light Snow Light Snow  
Wind Chill:   Ceiling: 1500
Heat Index: 21°   Visibility: 3mi
Dew Point: 16°   Wind: 14mph
Humidity: 80%   Direction: 70°ENE
Pressure: 29.89"   Gusts: 21mph
Location:  40.37°N, 76.3°W
Report Text: KMUI 261426Z AUTO 07012G18KT 3SM -SN BKN015 OVC020 M06/M09 A2989 RMK AO2 SNB1401
Loading
Personal Weather Stations






























Interactive Weather Map New forecast layout! Learn more

10-Day Weather Forecast

Advertisements
Track Severe Weather on mobile